RÉSULTATS    Marathon d'Orléans Sologne - Édition du 20/11/2016


Vous pouvez changer la distance ici.

Vous pouvez changer la distance ici.

Classement PDF Général Classement PDF Alphabétique Photos de l'évènement Classement Temps Réel - Temps Puce

Chargement des statistiques en cours




Pos. Temps Nom - Prénom Club Dossard Catégorie km/h
101 03:29:08 VIVES QUEROL Marc 347 V1M (41 / 144) 12.1
102 03:29:08 BOULE Franck 105 V2M (25 / 101) 12.1
103 03:29:08 MANZIAT Franck CS MONTEREAU 205 V1M (42 / 144) 12.1
104 03:29:52 ROMILLIAT Fabien 120 V1M (43 / 144) 12.0
105 03:29:53 REAUTE Camille 210 SEM (30 / 102) 12.0
106 03:30:00 DEFAUD Christian JOGGING VALLEE D'AVRE 222 V1M (44 / 144) 12.0
107 03:30:20 REVERT Gweltaz 378 SEM (31 / 102) 12.0
108 03:30:27 CHANTEMARGUE Julien 3PRT 41 SEM (32 / 102) 12.0
109 03:30:38 DRABER Matthieu C. O. DU SUD DE L'ESSONNE 251 V1M (45 / 144) 12.0
110 03:30:46 EVEZARD Olivier 295 SEM (33 / 102) 12.0
111 03:31:53 PRAUD Jean michel ATHLETIC CLUB DU PAYS D ANCENI 31 V3M (5 / 23) 11.9
112 03:32:00 LEGEAY Franck C O C CHATEAU DU LOIR 238 V1M (46 / 144) 11.9
113 03:32:11 DEWEZ Thierry 263 V1M (47 / 144) 11.9
114 03:32:29 JEAN Michee 128 SEM (34 / 102) 11.9
115 03:32:38 ROYER Herve LES VOISINS 124 V1M (48 / 144) 11.9
116 03:32:52 TIRTAINE Thomas OTC 45 261 SEM (35 / 102) 11.8
117 03:32:54 MOREAU Nathalie S/L LUCE MAINVILLIERS PTT ATHL 100 V1F (2 / 9) 11.8
118 03:33:04 JOUIN Jimmy 133 SEM (36 / 102) 11.8
119 03:33:17 VATOUX Jerome DASSAULT SPORTS SURESNES 415 V1M (49 / 144) 11.8
120 03:34:11 RIVIERE Francois 245 V1M (50 / 144) 11.8
121 03:34:40 RIQUEZ Sebastien 125 SEM (37 / 102) 11.7
122 03:34:46 BOUDET Philippe S/L ASF-USO NEVERS 185 V1M (51 / 144) 11.7
123 03:34:49 DURIEU Christophe 153 V2M (26 / 101) 11.7
124 03:34:53 PASTORELLI Olivier 18 V1M (52 / 144) 11.7
125 03:35:47 BEUZEL Jean marc 220 V2M (27 / 101) 11.7